Weather observations for the past three days for
Wenatchee - Pangborn Memorial Airport
Imperial (Metric)
Date Time (pdt) Wind (mph) Vis. (mi.) Weather Sky Cond. Temperature (ºF) Relative Humidity Wind Chill (°F) Heat Index (°F) Pressure Precipitation (in)
Air Dwpt 6 hour altimeter (in) sea level (mb) 1 hr 3 hr 6 hr
Max. Min.
02 16:55 NW 5 10.00 Fair CLR 81 37.9 82 70 21% 79 29.91 1012.0
02 15:55 Vrbl 7 10.00 Fair CLR 82 39 22% 80 29.93 1012.6
02 14:55 Vrbl 6 10.00 Fair CLR 81 39 22% 79 29.95 1013.4
02 13:55 W 9 10.00 Fair CLR 79 39 24% 78 29.96 1013.9
02 12:55 SW 8 10.00 Fair CLR 77 39 26% 77 29.99 1014.7
02 11:55 W 3 10.00 Fair CLR 73 41 32% 30 1015.4
02 10:55 Vrbl 6 10.00 Fair CLR 72 41 72 57 33% 30.01 1015.8
02 09:55 W 8 10.00 Fair CLR 68 42.1 39% 30.01 1015.6
02 08:55 W 9 10.00 Fair CLR 63 43 48% 30.01 1015.9
02 07:55 SW 7 10.00 Fair CLR 59 44.1 58% 30.01 1015.8
02 06:55 N 8 10.00 Fair CLR 57.9 43 58% 30 1015.5
02 05:55 SW 13 10.00 Mostly Cloudy BKN100 BKN120 59 42.1 54% 29.98 1014.5
02 04:55 N 5 10.00 A Few Clouds FEW110 57.9 43 63 57 58% 29.99 1014.9
02 03:55 SW 6 10.00 Fair CLR 57.9 43 58% 30 1015.2
02 02:55 Calm 10.00 Fair CLR 59 43 56% 29.98 1014.7
02 01:55 NW 10 10.00 Fair CLR 61 41 48% 29.98 1014.5
02 00:55 NW 5 10.00 Fair CLR 61 41 48% 29.98 1014.7
01 23:55 NW 3 10.00 Fair CLR 61 42.1 50% 29.98 1014.6
01 22:55 NE 3 10.00 Fair CLR 60.1 43 77 60.1 53% 29.97 1014.4
01 21:55 N 6 10.00 Fair CLR 64.9 41 42% 29.96 1014.1
01 20:55 Calm 10.00 Fair CLR 66.9 39.9 37% 29.94 1013.6
01 19:55 E 5 10.00 Fair CLR 69.1 43 39% 29.93 1013.2
01 18:55 E 5 10.00 Fair CLR 73.9 41 31% 29.93 1013.1
01 17:55 SE 9 10.00 Fair CLR 75.9 37 25% 77 29.93 1013.2
01 16:55 SE 10 10.00 Fair CLR 75.9 37 77 64.9 25% 77 29.94 1013.5
01 15:55 SE 10 10.00 Fair CLR 75.9 36 23% 77 29.96 1014.2
01 14:55 SE 7 10.00 Fair CLR 73.9 35.1 24% 29.98 1015.0
01 13:55 SE 8 G 16 10.00 Fair CLR 75 33.1 22% 76 30 1015.3
01 12:55 SE 10 10.00 Fair CLR 73.9 34 23% 30.02 1015.9
01 11:55 Calm 10.00 Fair CLR 69.1 39 33% 30.03 1016.5
01 10:55 Calm 10.00 Fair CLR 64.9 39 64.9 48 39% 30.05 1017.1
01 09:55 SW 5 10.00 Fair CLR 60.1 37.9 44% 30.06 1017.7
01 08:55 W 7 10.00 Fair CLR 55 37 51% 30.07 1018.1
01 07:55 W 12 10.00 Fair CLR 52 37 57% 30.07 1017.9
01 06:55 W 6 10.00 Fair CLR 50 37 61% 48 30.06 1017.5
01 05:55 W 8 10.00 Fair CLR 48.9 37 64% 46 30.05 1017.2
01 04:55 NW 7 10.00 Fair CLR 51.1 36 62.1 48.9 56% 30.04 1016.9
01 03:55 W 10 10.00 Fair CLR 51.1 37 59% 30.04 1017.0
01 02:55 W 10 10.00 Fair CLR 53.1 37 55% 30.04 1016.9
01 01:55 W 7 10.00 Fair CLR 55 37 51% 30.05 1017.1
01 00:55 NW 7 10.00 Fair CLR 55 36 49% 30.05 1017.1
30 23:55 Calm 10.00 Fair CLR 55.9 36 47% 30.04 1016.8
30 22:55 SW 3 10.00 Fair CLR 62.1 33.1 75 61 34% 30.04 1016.7
30 21:55 W 5 10.00 Fair CLR 64 32 30% 30.04 1016.9
30 20:55 W 6 10.00 Fair CLR 66.9 33.1 29% 30.03 1016.7
30 19:55 E 5 10.00 Fair CLR 68 35.1 30% 30.02 1016.3
30 18:55 E 6 10.00 Fair CLR 73 32 22% 30.03 1016.5
30 17:55 SE 7 10.00 Fair CLR 73.9 28.9 19% 30.04 1016.9
30 16:55 SE 9 10.00 Fair CLR 75 28.9 75.9 64 18% 76 30.05 1017.1
30 15:55 SE 10 10.00 Fair CLR 75 30 19% 76 30.07 1017.8
30 14:55 S 8 10.00 Fair CLR 73.9 33.1 22% 30.09 1018.5
30 13:55 Calm 10.00 Fair CLR 73 37 27% 30.11 1019.1
30 11:55 Vrbl 5 10.00 Fair CLR 69.1 39.9 35% 30.15 1020.8
30 10:55 Calm 10.00 Fair CLR 64 39.9 64 48 41% 30.17 1021.6
30 09:55 Calm 10.00 Fair CLR 59 39.9 49% 30.19 1022.2
30 08:55 W 7 10.00 Fair CLR 55.9 39.9 55% 30.2 1022.6
30 07:55 NW 5 10.00 Fair CLR 52 39.9 64% 30.21 1022.8
30 06:55 W 12 10.00 Fair CLR 50 39 66% 46 30.2 1022.3
30 05:55 W 12 10.00 Fair CLR 48.9 39 69% 45 30.18 1021.9
30 04:55 NW 8 10.00 Fair CLR 50 39 60.1 48.9 66% 47 30.18 1021.9
30 03:55 NW 10 10.00 Fair CLR 53.1 39.9 61% 30.18 1021.7
30 02:55 NW 9 10.00 Fair CLR 52 39.9 64% 30.17 1021.6
30 01:55 NW 12 10.00 Fair CLR 55 39.9 57% 30.17 1021.5
30 00:55 NW 8 10.00 Fair CLR 57 39 51% 30.18 1021.6
29 23:55 E 3 10.00 Fair CLR 55 41 59% 30.16 1021.2
29 22:55 NE 3 10.00 Fair CLR 59 39.9 72 57.9 49% 30.15 1020.9
29 21:55 E 5 10.00 Fair CLR 59 41 51% 30.15 1020.9
29 20:55 E 7 10.00 Fair CLR 61 41 48% 30.14 1020.5
29 19:55 E 6 10.00 Fair CLR 64.9 41 42% 30.13 1020.1
29 18:55 E 7 10.00 Fair CLR 70 39 32% 30.13 1020.0
29 17:55 SE 8 10.00 Fair CLR 71.1 37 29% 30.13 1020.1
Date Time (pdt) Wind (mph) Vis. (mi.) Weather Sky Cond. Air Dwpt Max. Min. Relative Humidity Wind Chill (°F) Heat Index (°F) altimeter (in) sea level (mb) 1 hr 3 hr 6 hr
6 hour
Temperature (ºF) Pressure Precipitation (in)